Time;durP1;ratioP1;P1;durP2;ratioP2;P2;SDS_P1;SDS_P2;PMS_P1;PMS_P2;Temp;Humidity;BMP_temperature;BMP_pressure;BME280_temperature;BME280_humidity;BME280_pressure;Samples;Min_cycle;Max_cycle;Signal;HPM_P1;HPM_P2
2023/01/12 00:01:22;;;;;;;3.20;0.10;;;6.80;90.00;;;;;;4997041;28;89141;-76
2023/01/12 00:03:48;;;;;;;2.10;0.00;;;6.70;90.10;;;;;;4997355;28;87002;-76
2023/01/12 00:06:15;;;;;;;2.00;0.10;;;6.60;90.20;;;;;;4997537;28;87629;-76
2023/01/12 00:08:41;;;;;;;1.00;0.00;;;6.60;90.20;;;;;;4997394;28;88152;-76
2023/01/12 00:11:07;;;;;;;3.63;0.10;;;6.50;90.30;;;;;;4997236;28;88306;-76
2023/01/12 00:13:33;;;;;;;2.47;0.00;;;6.40;89.60;;;;;;4998100;28;86971;-77
2023/01/12 00:18:45;;;;;;;1.98;0.08;;;6.60;88.30;;;;;;4984451;28;87894;-75
2023/01/12 00:21:10;;;;;;;1.73;0.10;;;6.70;87.60;;;;;;4996502;28;87916;-76
2023/01/12 00:23:43;;;;;;;2.03;0.00;;;6.80;87.20;;;;;;4996572;28;88442;-74
2023/01/12 00:26:10;;;;;;;4.43;0.20;;;6.80;87.10;;;;;;4996761;28;87266;-75
2023/01/12 00:28:37;;;;;;;4.30;0.25;;;6.90;87.10;;;;;;4996652;28;87465;-74
2023/01/12 00:31:08;;;;;;;1.65;0.10;;;6.90;86.80;;;;;;5005225;28;87940;-74
2023/01/12 00:33:35;;;;;;;1.60;0.10;;;6.80;87.00;;;;;;4996614;28;87274;-76
2023/01/12 00:36:03;;;;;;;3.00;0.10;;;6.70;87.00;;;;;;4996802;28;87461;-75
2023/01/12 00:38:29;;;;;;;2.25;0.08;;;6.70;87.10;;;;;;4996789;28;87964;-75
2023/01/12 00:40:54;;;;;;;3.53;0.10;;;6.70;87.20;;;;;;4996463;28;86665;-74
2023/01/12 00:46:29;;;;;;;4.80;0.25;;;6.50;87.90;;;;;;5020534;28;80678;-78
2023/01/12 00:48:55;;;;;;;3.80;0.38;;;6.40;88.70;;;;;;5011459;28;80647;-75
2023/01/12 00:51:20;;;;;;;4.35;0.20;;;6.30;88.90;;;;;;4999584;28;80836;-73
2023/01/12 00:53:46;;;;;;;1.35;0.20;;;6.30;89.60;;;;;;4999392;28;80473;-72
2023/01/12 00:56:12;;;;;;;3.70;0.25;;;6.10;89.80;;;;;;5008897;28;81527;-73
2023/01/12 00:58:37;;;;;;;2.00;0.20;;;6.00;90.20;;;;;;5013452;28;82032;-74
2023/01/12 01:01:07;;;;;;;2.67;0.40;;;5.90;90.40;;;;;;5018042;28;81099;-76
2023/01/12 01:03:34;;;;;;;4.13;0.20;;;5.90;90.40;;;;;;5018279;28;80614;-77
2023/01/12 01:06:02;;;;;;;3.22;0.10;;;5.80;90.70;;;;;;4990816;28;81166;-76
2023/01/12 01:08:27;;;;;;;1.40;0.20;;;5.90;90.50;;;;;;5001079;28;80545;-75
2023/01/12 01:11:10;;;;;;;4.38;0.40;;;6.10;90.10;;;;;;5017826;28;80617;-75
2023/01/12 01:13:40;;;;;;;2.95;0.10;;;6.10;89.70;;;;;;5018751;28;80400;-74
2023/01/12 01:16:07;;;;;;;3.03;0.10;;;6.20;89.40;;;;;;5013321;28;81299;-75
2023/01/12 01:18:33;;;;;;;7.13;0.10;;;6.20;88.20;;;;;;5016457;28;81163;-74
2023/01/12 01:21:00;;;;;;;3.75;0.10;;;6.40;87.60;;;;;;5015516;28;80841;-74
2023/01/12 01:23:27;;;;;;;2.45;0.10;;;6.60;87.10;;;;;;5016573;28;80568;-75
2023/01/12 01:25:53;;;;;;;1.88;0.30;;;6.80;86.40;;;;;;5017883;28;81248;-75
2023/01/12 01:28:19;;;;;;;2.83;0.10;;;6.80;86.00;;;;;;5018069;28;81185;-75
2023/01/12 01:30:46;;;;;;;2.47;0.10;;;6.70;85.20;;;;;;5018457;28;80734;-75
2023/01/12 01:33:13;;;;;;;1.90;0.20;;;6.80;85.20;;;;;;5018060;28;80550;-76
2023/01/12 01:35:38;;;;;;;1.52;0.20;;;6.70;84.90;;;;;;5018255;28;81024;-77
2023/01/12 01:38:04;;;;;;;1.95;0.10;;;6.80;84.70;;;;;;5007116;28;81175;-76
2023/01/12 01:40:31;;;;;;;1.42;0.10;;;6.80;84.50;;;;;;5003377;28;80480;-76
2023/01/12 01:42:57;;;;;;;3.80;0.20;;;6.80;84.60;;;;;;5017496;28;80241;-75
2023/01/12 01:45:23;;;;;;;5.10;0.10;;;6.70;84.40;;;;;;5016593;28;81437;-75
2023/01/12 01:47:53;;;;;;;1.83;0.10;;;6.80;83.50;;;;;;5017091;28;81072;-77
2023/01/12 01:50:27;;;;;;;3.85;0.35;;;6.80;83.30;;;;;;5013185;28;82345;-77
2023/01/12 01:52:58;;;;;;;5.32;0.30;;;6.80;83.10;;;;;;4998288;28;80617;-75
2023/01/12 01:55:32;;;;;;;4.00;0.10;;;6.90;83.00;;;;;;4994390;28;81090;-77
2023/01/12 01:58:06;;;;;;;2.22;0.10;;;6.80;82.50;;;;;;4984197;28;81433;-76
2023/01/12 02:00:32;;;;;;;2.90;0.00;;;6.80;82.30;;;;;;4984722;28;80940;-76
2023/01/12 02:03:00;;;;;;;2.90;0.32;;;6.80;82.60;;;;;;4984339;28;80798;-77
2023/01/12 02:05:27;;;;;;;1.83;0.10;;;6.70;82.20;;;;;;4984207;28;81977;-76
2023/01/12 02:07:54;;;;;;;6.82;0.30;;;6.80;82.50;;;;;;4984625;28;81930;-77
2023/01/12 02:10:20;;;;;;;2.33;0.17;;;6.70;82.10;;;;;;4983916;28;80923;-78
2023/01/12 02:16:22;;;;;;;1.42;0.10;;;6.70;81.70;;;;;;4971602;28;80670;-77
2023/01/12 02:19:24;;;;;;;2.55;0.20;;;6.70;81.50;;;;;;4971747;28;81249;-77
2023/01/12 02:22:27;;;;;;;2.97;0.10;;;6.80;81.30;;;;;;4984641;28;80664;-77
2023/01/12 02:25:35;;;;;;;2.30;0.17;;;6.80;81.80;;;;;;4982630;28;82783;-75
2023/01/12 02:28:38;;;;;;;4.10;0.10;;;6.70;83.20;;;;;;4983723;28;81553;-76
2023/01/12 02:31:24;;;;;;;2.60;0.43;;;6.40;84.50;;;;;;4979682;28;81311;-75
2023/01/12 02:34:14;;;;;;;1.92;0.10;;;6.30;84.50;;;;;;4983449;28;81249;-76
2023/01/12 02:36:54;;;;;;;4.07;0.30;;;6.30;84.80;;;;;;4983982;28;80669;-76
2023/01/12 02:39:27;;;;;;;1.75;0.30;;;6.10;87.10;;;;;;4979212;28;80981;-76
2023/01/12 02:45:12;;;;;;;2.50;0.50;;;5.70;89.90;;;;;;4982057;28;80743;-76
2023/01/12 02:48:15;;;;;;;4.75;0.30;;;5.60;89.90;;;;;;4972146;28;80572;-77
2023/01/12 02:50:50;;;;;;;4.97;0.45;;;5.50;90.20;;;;;;4977224;28;81347;-75
2023/01/12 02:53:42;;;;;;;3.63;0.30;;;5.40;90.50;;;;;;4982833;28;81637;-75
2023/01/12 02:56:10;;;;;;;3.17;0.32;;;5.30;90.50;;;;;;4984737;28;81442;-73
2023/01/12 02:58:41;;;;;;;3.13;0.30;;;5.20;91.10;;;;;;4978867;28;80484;-76
2023/01/12 03:01:08;;;;;;;3.22;0.45;;;5.20;91.10;;;;;;4982853;28;80488;-76
2023/01/12 03:03:38;;;;;;;3.25;0.85;;;5.10;91.10;;;;;;4979026;28;80604;-75
2023/01/12 03:06:05;;;;;;;6.10;1.23;;;5.10;90.90;;;;;;4980807;28;82738;-74
2023/01/12 03:08:33;;;;;;;5.43;1.17;;;4.90;91.10;;;;;;4982532;28;80853;-76
2023/01/12 03:11:17;;;;;;;3.35;0.50;;;4.90;91.20;;;;;;4983424;28;81456;-76
2023/01/12 03:13:54;;;;;;;1.98;0.20;;;4.80;91.40;;;;;;4983557;28;81591;-78
2023/01/12 03:16:21;;;;;;;;;;;4.80;91.80;;;;;;4984457;28;80616;-77
2023/01/12 03:19:04;;;;;;;2.75;0.30;;;4.70;91.60;;;;;;4984837;28;80769;-76
2023/01/12 03:21:46;;;;;;;3.55;0.63;;;4.80;91.90;;;;;;4983166;28;81235;-77
2023/01/12 03:24:16;;;;;;;3.42;0.30;;;4.70;92.10;;;;;;4983720;28;81738;-76
2023/01/12 03:26:54;;;;;;;2.33;0.40;;;4.80;92.00;;;;;;4983605;28;80700;-75
2023/01/12 03:29:40;;;;;;;3.33;0.40;;;4.70;92.20;;;;;;4982431;28;80684;-77
2023/01/12 03:32:06;;;;;;;4.05;0.40;;;4.70;92.30;;;;;;4982801;28;80935;-74
2023/01/12 03:34:33;;;;;;;2.47;0.30;;;4.70;92.40;;;;;;4986049;28;80636;-74
2023/01/12 03:37:10;;;;;;;3.03;0.20;;;4.70;92.60;;;;;;4999109;28;81172;-74
2023/01/12 03:39:47;;;;;;;2.20;0.30;;;4.60;92.50;;;;;;4982396;28;80744;-73
2023/01/12 03:42:31;;;;;;;3.13;0.30;;;4.50;92.30;;;;;;4981843;28;81142;-74
2023/01/12 03:45:03;;;;;;;1.45;0.10;;;4.50;93.10;;;;;;4981971;28;81790;-74
2023/01/12 03:47:32;;;;;;;3.00;0.10;;;4.60;94.10;;;;;;4982190;28;81033;-74
2023/01/12 03:50:07;;;;;;;3.03;0.20;;;4.80;93.20;;;;;;4982336;28;80956;-74
2023/01/12 03:52:35;;;;;;;2.22;0.10;;;4.80;94.10;;;;;;4981990;28;81314;-75
2023/01/12 03:55:04;;;;;;;2.80;0.20;;;5.00;94.60;;;;;;4971927;28;80307;-76
2023/01/12 03:57:31;;;;;;;2.60;0.20;;;5.20;94.30;;;;;;4981369;28;80655;-76
2023/01/12 03:59:59;;;;;;;1.17;0.10;;;5.30;93.30;;;;;;4982263;28;80593;-75
2023/01/12 04:02:25;;;;;;;3.42;0.10;;;5.40;93.40;;;;;;4982310;28;80711;-79
2023/01/12 04:04:51;;;;;;;1.77;0.30;;;5.40;93.00;;;;;;4982575;28;81596;-76
2023/01/12 04:07:16;;;;;;;3.13;0.20;;;5.40;93.20;;;;;;5002228;28;81162;-75
2023/01/12 04:09:42;;;;;;;3.88;0.20;;;5.50;93.50;;;;;;5002062;28;80626;-75
2023/01/12 04:12:09;;;;;;;3.30;0.28;;;5.60;92.90;;;;;;4992761;28;80876;-74
2023/01/12 04:14:38;;;;;;;5.53;0.20;;;5.60;92.60;;;;;;5002030;28;80572;-74
2023/01/12 04:17:04;;;;;;;2.10;0.10;;;5.70;92.00;;;;;;4989217;28;80804;-76
2023/01/12 04:19:30;;;;;;;0.90;0.10;;;5.70;91.70;;;;;;4981628;28;80761;-75
2023/01/12 04:24:42;;;;;;;2.17;0.10;;;5.80;91.60;;;;;;4982055;28;80764;-75
2023/01/12 04:27:08;;;;;;;1.92;0.10;;;5.80;91.60;;;;;;4981500;28;80610;-76
2023/01/12 04:29:34;;;;;;;1.15;0.10;;;5.80;91.70;;;;;;4970059;28;80761;-76
2023/01/12 04:32:00;;;;;;;0.60;0.10;;;5.90;91.60;;;;;;4981145;28;81192;-74
2023/01/12 04:34:25;;;;;;;1.63;0.20;;;5.90;91.30;;;;;;4981398;28;81182;-75
2023/01/12 04:36:51;;;;;;;1.20;0.10;;;5.90;91.50;;;;;;4980968;28;81065;-75
2023/01/12 04:39:17;;;;;;;2.00;0.10;;;5.90;91.60;;;;;;4981705;28;81042;-76
2023/01/12 04:41:42;;;;;;;3.60;0.17;;;5.90;91.80;;;;;;4980923;28;81246;-75
2023/01/12 04:44:08;;;;;;;2.00;0.10;;;6.00;91.60;;;;;;4980931;28;80883;-75
2023/01/12 04:46:34;;;;;;;2.60;0.15;;;6.00;91.60;;;;;;4975676;28;80604;-76
2023/01/12 04:48:59;;;;;;;2.33;0.13;;;6.00;91.60;;;;;;4981433;28;80591;-76
2023/01/12 04:51:25;;;;;;;1.75;0.20;;;6.00;91.60;;;;;;4976316;28;81515;-75
2023/01/12 04:53:52;;;;;;;2.15;0.10;;;6.00;91.70;;;;;;4977349;28;80627;-76
2023/01/12 04:56:18;;;;;;;1.40;0.20;;;6.10;91.80;;;;;;4977801;28;80778;-76
2023/01/12 04:58:44;;;;;;;2.63;0.20;;;6.10;91.70;;;;;;4976616;28;81074;-76
2023/01/12 05:01:18;;;;;;;2.13;0.10;;;6.00;91.90;;;;;;4975735;28;82899;-72
2023/01/12 05:03:44;;;;;;;3.55;0.45;;;6.00;92.00;;;;;;4977845;28;83098;-77
2023/01/12 05:06:10;;;;;;;1.35;0.20;;;6.00;91.90;;;;;;4969086;28;82437;-76
2023/01/12 05:11:24;;;;;;;2.55;0.10;;;6.00;91.80;;;;;;4971146;28;83031;-77
2023/01/12 05:13:49;;;;;;;1.10;0.20;;;6.00;91.70;;;;;;4972516;28;83740;-79
2023/01/12 05:16:17;;;;;;;1.77;0.10;;;6.00;91.70;;;;;;4976846;28;82165;-76
2023/01/12 05:18:44;;;;;;;0.95;0.15;;;6.00;91.50;;;;;;4979731;28;82249;-77
2023/01/12 05:21:10;;;;;;;3.45;0.20;;;6.00;91.60;;;;;;4976680;28;83102;-76
2023/01/12 05:23:36;;;;;;;1.67;0.30;;;6.00;91.70;;;;;;4973697;28;83269;-76
2023/01/12 05:26:04;;;;;;;2.13;0.30;;;6.00;91.80;;;;;;4998391;28;82224;-77
2023/01/12 05:28:30;;;;;;;3.92;0.70;;;6.00;92.00;;;;;;5000496;28;81592;-76
2023/01/12 05:31:09;;;;;;;3.00;0.50;;;5.90;92.00;;;;;;4980606;28;83001;-76
2023/01/12 05:33:36;;;;;;;3.22;0.30;;;5.90;92.30;;;;;;4983058;28;83478;-75
2023/01/12 05:36:06;;;;;;;2.83;0.38;;;5.80;92.40;;;;;;4966915;28;83324;-75
2023/01/12 05:38:32;;;;;;;2.03;0.38;;;5.90;92.50;;;;;;4974961;28;82398;-74
2023/01/12 05:41:03;;;;;;;1.92;0.28;;;5.80;92.50;;;;;;4980918;28;82174;-74
2023/01/12 05:46:14;;;;;;;2.42;0.30;;;5.80;92.40;;;;;;4965391;28;83762;-76
2023/01/12 05:48:40;;;;;;;4.45;0.70;;;5.80;92.40;;;;;;4968053;28;82429;-75
2023/01/12 05:51:07;;;;;;;4.05;0.55;;;5.80;92.40;;;;;;4964183;28;84491;-71
2023/01/12 05:53:33;;;;;;;1.85;0.30;;;5.80;92.50;;;;;;4964224;28;82785;-73
2023/01/12 05:56:15;;;;;;;2.28;0.32;;;5.80;92.50;;;;;;4970448;28;82433;-73
2023/01/12 05:58:41;;;;;;;2.08;0.30;;;5.80;92.50;;;;;;4968764;28;83695;-76
2023/01/12 06:01:08;;;;;;;1.75;0.20;;;5.80;92.60;;;;;;4967353;28;83799;-76
2023/01/12 06:03:34;;;;;;;2.22;0.30;;;5.90;92.60;;;;;;4970974;28;84707;-79
2023/01/12 06:06:00;;;;;;;2.75;0.40;;;5.90;92.60;;;;;;4967026;28;84556;-74
2023/01/12 06:08:26;;;;;;;2.35;0.30;;;5.90;92.50;;;;;;4965639;28;82565;-72
2023/01/12 06:10:52;;;;;;;3.05;0.30;;;5.90;92.20;;;;;;4968762;28;84073;-77
2023/01/12 06:16:04;;;;;;;1.50;0.20;;;5.90;92.00;;;;;;4976157;28;84270;-74
2023/01/12 06:18:34;;;;;;;0.93;0.10;;;5.90;92.00;;;;;;4978558;28;81888;-72
2023/01/12 06:21:00;;;;;;;1.35;0.20;;;5.80;92.10;;;;;;4968026;28;83954;-74
2023/01/12 06:23:26;;;;;;;4.30;0.30;;;5.80;92.10;;;;;;4966578;28;84001;-75
2023/01/12 06:25:52;;;;;;;2.38;0.30;;;5.70;92.30;;;;;;4969490;28;83109;-76
2023/01/12 06:28:17;;;;;;;2.03;0.40;;;5.70;92.80;;;;;;4969853;28;83259;-72
2023/01/12 06:30:43;;;;;;;4.38;0.20;;;5.70;92.60;;;;;;4965353;28;83613;-75
2023/01/12 06:33:09;;;;;;;2.45;0.40;;;5.60;92.50;;;;;;4963745;28;84259;-74
2023/01/12 06:35:34;;;;;;;1.77;0.50;;;5.60;92.40;;;;;;4966290;28;82438;-80
2023/01/12 06:38:00;;;;;;;1.73;0.40;;;5.60;92.40;;;;;;4968325;28;82898;-73
2023/01/12 06:40:26;;;;;;;3.20;0.30;;;5.60;92.40;;;;;;4968008;28;82916;-76
2023/01/12 06:42:51;;;;;;;2.40;0.30;;;5.70;92.40;;;;;;4968612;28;83011;-77
2023/01/12 06:45:17;;;;;;;1.63;0.25;;;5.70;92.40;;;;;;4977413;28;82434;-76
2023/01/12 06:47:48;;;;;;;2.42;0.30;;;5.70;92.30;;;;;;4981490;28;82317;-74
2023/01/12 06:50:14;;;;;;;2.53;0.40;;;5.80;92.30;;;;;;4981244;28;83962;-76
2023/01/12 06:52:40;;;;;;;1.77;0.30;;;5.90;92.00;;;;;;4981833;28;83777;-76
2023/01/12 06:55:06;;;;;;;3.38;0.30;;;6.00;91.90;;;;;;4982085;28;82330;-75
2023/01/12 06:57:31;;;;;;;4.00;0.30;;;6.00;91.90;;;;;;4991908;28;82299;-76
2023/01/12 06:59:57;;;;;;;2.78;0.30;;;6.10;91.50;;;;;;5001685;28;82946;-75
2023/01/12 07:02:23;;;;;;;5.60;0.30;;;6.10;91.60;;;;;;4976255;28;82842;-78
2023/01/12 07:04:48;;;;;;;4.53;0.45;;;6.10;91.50;;;;;;4982226;28;82542;-76
2023/01/12 07:07:14;;;;;;;1.85;0.30;;;6.10;91.30;;;;;;4996969;28;81468;-76
2023/01/12 07:09:40;;;;;;;2.05;0.40;;;6.10;91.50;;;;;;5001604;28;83107;-77
2023/01/12 07:12:06;;;;;;;1.95;0.45;;;6.10;91.40;;;;;;5001691;28;82370;-75
2023/01/12 07:14:32;;;;;;;2.28;0.40;;;6.20;91.40;;;;;;5000638;28;83319;-73
2023/01/12 07:16:58;;;;;;;4.00;0.30;;;6.20;91.30;;;;;;4989773;28;84267;-76
2023/01/12 07:19:24;;;;;;;2.90;0.40;;;6.20;91.10;;;;;;4976479;28;83123;-76
2023/01/12 07:21:49;;;;;;;3.08;0.22;;;6.20;91.30;;;;;;4981223;28;83327;-76
2023/01/12 07:24:15;;;;;;;5.00;0.55;;;6.30;91.00;;;;;;4981492;28;81964;-73
2023/01/12 07:26:41;;;;;;;2.53;0.40;;;6.30;91.10;;;;;;4981960;28;82062;-78
2023/01/12 07:29:07;;;;;;;1.52;0.30;;;6.30;91.40;;;;;;4979129;28;83133;-76
2023/01/12 07:31:33;;;;;;;2.88;0.30;;;6.30;90.80;;;;;;4981701;28;83289;-76
2023/01/12 07:33:58;;;;;;;2.20;0.50;;;6.40;90.70;;;;;;4981201;28;82519;-74
2023/01/12 07:36:24;;;;;;;2.50;0.30;;;6.40;90.50;;;;;;4978474;28;82486;-75
2023/01/12 07:38:50;;;;;;;2.45;0.30;;;6.40;90.30;;;;;;4996784;28;84382;-76
2023/01/12 07:44:00;;;;;;;3.53;0.40;;;6.40;90.30;;;;;;5001378;28;82281;-76
2023/01/12 07:46:26;;;;;;;2.33;0.32;;;6.40;90.30;;;;;;5001045;28;83783;-75
2023/01/12 07:48:51;;;;;;;2.63;0.20;;;6.40;90.10;;;;;;5000993;28;82492;-75
2023/01/12 07:51:17;;;;;;;1.85;0.32;;;6.40;90.60;;;;;;5001026;28;82958;-76
2023/01/12 07:53:43;;;;;;;2.08;0.32;;;6.40;90.30;;;;;;4981284;28;82971;-75
2023/01/12 07:56:09;;;;;;;2.20;0.30;;;6.50;90.20;;;;;;4981032;28;81681;-76
2023/01/12 07:58:35;;;;;;;2.10;0.20;;;6.60;89.90;;;;;;4981326;28;83072;-75
2023/01/12 08:01:01;;;;;;;1.92;0.30;;;6.70;90.00;;;;;;4980268;28;83410;-77
2023/01/12 08:03:27;;;;;;;1.85;0.40;;;7.00;88.60;;;;;;4980584;28;83145;-75
2023/01/12 08:05:54;;;;;;;1.00;0.20;;;7.30;87.30;;;;;;4980867;28;82152;-75
2023/01/12 08:08:20;;;;;;;2.13;0.30;;;7.50;85.40;;;;;;4980365;28;83126;-75
2023/01/12 08:10:48;;;;;;;2.65;0.43;;;7.70;85.50;;;;;;4977533;28;82537;-76
2023/01/12 08:13:15;;;;;;;2.25;0.20;;;7.90;83.60;;;;;;4980368;28;81947;-75
2023/01/12 08:15:45;;;;;;;3.67;0.47;;;7.90;83.60;;;;;;4980541;28;82209;-76
2023/01/12 08:18:32;;;;;;;1.77;0.30;;;7.90;83.60;;;;;;4967498;28;82531;-75
2023/01/12 08:20:59;;;;;;;2.35;0.40;;;7.90;82.80;;;;;;4980660;28;83084;-75
2023/01/12 08:23:32;;;;;;;1.90;0.35;;;7.90;82.40;;;;;;4980032;28;82469;-75
2023/01/12 08:26:03;;;;;;;3.30;0.40;;;7.90;84.40;;;;;;4978918;28;82028;-75
2023/01/12 08:29:02;;;;;;;1.92;0.30;;;7.80;83.10;;;;;;4971966;28;84158;-76
2023/01/12 08:31:31;;;;;;;1.73;0.30;;;7.70;83.00;;;;;;4980544;28;83765;-76
2023/01/12 08:33:57;;;;;;;2.10;0.20;;;7.60;83.10;;;;;;4996928;28;82185;-75
2023/01/12 08:36:24;;;;;;;3.42;0.30;;;7.60;83.20;;;;;;5000472;28;82692;-77
2023/01/12 08:38:50;;;;;;;1.90;0.40;;;7.60;82.60;;;;;;4982147;28;82834;-76
2023/01/12 08:41:36;;;;;;;1.25;0.22;;;7.50;82.90;;;;;;4980533;28;83111;-75
2023/01/12 08:44:08;;;;;;;1.45;0.20;;;7.60;81.90;;;;;;4975813;28;82117;-76
2023/01/12 08:46:54;;;;;;;1.20;0.20;;;7.50;83.10;;;;;;4980268;28;81622;-77
2023/01/12 08:49:23;;;;;;;1.35;0.20;;;7.50;82.80;;;;;;4980162;28;81911;-76
2023/01/12 08:51:48;;;;;;;2.28;0.20;;;7.50;81.90;;;;;;4980000;28;83034;-75
2023/01/12 08:54:16;;;;;;;2.10;0.22;;;7.50;82.70;;;;;;4979510;28;83096;-78
2023/01/12 08:56:42;;;;;;;3.40;0.30;;;7.50;82.20;;;;;;4980261;28;82216;-76
2023/01/12 08:59:08;;;;;;;1.20;0.20;;;7.50;81.50;;;;;;4979848;28;83354;-75
2023/01/12 09:01:34;;;;;;;1.65;0.20;;;7.50;82.70;;;;;;4968886;28;82240;-75
2023/01/12 09:04:00;;;;;;;1.38;0.10;;;7.60;81.70;;;;;;4980259;28;82437;-74
2023/01/12 09:06:30;;;;;;;2.45;0.30;;;7.70;80.70;;;;;;4980980;28;82418;-76
2023/01/12 09:08:58;;;;;;;1.30;0.38;;;7.70;80.70;;;;;;4983750;28;82119;-73
2023/01/12 09:11:25;;;;;;;0.73;0.10;;;7.70;80.00;;;;;;4983381;28;82310;-76
2023/01/12 09:13:51;;;;;;;2.53;0.10;;;7.70;80.10;;;;;;4983176;28;82024;-78
2023/01/12 09:16:18;;;;;;;1.42;0.20;;;7.80;79.00;;;;;;4983853;28;82466;-75
2023/01/12 09:18:44;;;;;;;2.53;0.30;;;7.80;81.20;;;;;;4977189;28;83294;-78
2023/01/12 09:21:13;;;;;;;1.60;0.20;;;7.90;79.20;;;;;;4983293;28;83897;-75
2023/01/12 09:23:39;;;;;;;0.98;0.17;;;8.00;78.80;;;;;;4983137;28;82301;-75
2023/01/12 09:26:17;;;;;;;2.65;0.22;;;8.00;78.90;;;;;;4983280;28;82064;-77
2023/01/12 09:28:43;;;;;;;3.03;0.10;;;8.10;78.50;;;;;;4983371;28;82635;-75
2023/01/12 09:31:15;;;;;;;1.50;0.15;;;8.10;75.30;;;;;;4983262;28;82498;-76
2023/01/12 09:33:42;;;;;;;1.13;0.20;;;8.10;77.00;;;;;;4983055;28;82340;-76
2023/01/12 09:36:13;;;;;;;2.65;0.10;;;8.20;75.90;;;;;;4982589;28;81796;-76
2023/01/12 09:38:41;;;;;;;1.30;0.20;;;8.30;76.60;;;;;;4997418;28;83020;-75
2023/01/12 09:41:09;;;;;;;0.35;0.03;;;8.30;75.20;;;;;;5002570;28;82319;-76
2023/01/12 09:49:26;;;;;;;2.97;0.10;;;8.40;75.30;;;;;;5003111;28;82528;-75
2023/01/12 09:52:21;;;;;;;2.85;0.10;;;8.40;75.00;;;;;;4987445;28;82303;-76
2023/01/12 09:54:50;;;;;;;1.20;0.20;;;8.30;75.90;;;;;;4982849;28;82378;-77
2023/01/12 09:57:53;;;;;;;1.13;0.10;;;8.40;75.40;;;;;;4983061;28;82049;-75
2023/01/12 10:00:19;;;;;;;3.20;0.20;;;8.40;76.70;;;;;;4982554;28;82542;-75
2023/01/12 10:03:02;;;;;;;3.95;0.10;;;8.40;75.80;;;;;;4983085;28;82846;-75
2023/01/12 10:05:41;;;;;;;2.95;0.30;;;8.50;74.60;;;;;;4982559;28;82013;-75
2023/01/12 10:08:49;;;;;;;0.65;0.00;;;8.60;74.80;;;;;;4979456;28;82171;-75
2023/01/12 10:11:45;;;;;;;4.88;0.20;;;8.60;73.40;;;;;;4976976;28;84480;-74
2023/01/12 10:14:11;;;;;;;;;;;8.70;74.60;;;;;;4982832;28;82072;-73
2023/01/12 10:16:57;;;;;;;2.08;0.20;;;8.80;73.30;;;;;;4983529;28;82166;-76
2023/01/12 10:19:33;;;;;;;1.60;0.32;;;8.80;72.90;;;;;;4976898;28;82444;-75
2023/01/12 10:22:10;;;;;;;0.70;0.20;;;8.90;73.20;;;;;;4972240;28;84567;-77
2023/01/12 10:24:40;;;;;;;1.20;0.20;;;8.90;72.30;;;;;;4977608;28;82991;-76
2023/01/12 10:27:12;;;;;;;2.47;0.20;;;9.00;72.30;;;;;;4975288;28;82437;-73
2023/01/12 10:29:38;;;;;;;1.70;0.10;;;9.00;72.50;;;;;;4971964;28;82050;-75
2023/01/12 10:32:04;;;;;;;1.13;0.20;;;9.10;71.40;;;;;;4981847;28;82363;-75
2023/01/12 10:34:50;;;;;;;1.25;0.25;;;9.20;71.90;;;;;;4981829;28;82823;-75
2023/01/12 10:37:16;;;;;;;0.93;0.10;;;9.10;71.30;;;;;;4980516;28;83854;-75
2023/01/12 10:39:43;;;;;;;3.55;0.40;;;9.00;72.00;;;;;;4980310;28;82494;-74
2023/01/12 10:45:23;;;;;;;6.65;1.08;;;8.80;73.60;;;;;;4977950;28;82797;-76
2023/01/12 10:47:55;;;;;;;2.40;0.38;;;8.70;74.30;;;;;;4988051;28;82459;-75
2023/01/12 10:50:30;;;;;;;2.58;0.77;;;8.70;74.50;;;;;;4994407;28;84331;-76
2023/01/12 10:53:02;;;;;;;3.15;0.40;;;8.60;74.70;;;;;;4987146;28;82732;-74
2023/01/12 10:55:31;;;;;;;2.22;0.43;;;8.50;75.80;;;;;;4982356;28;83783;-74
2023/01/12 10:57:57;;;;;;;2.22;0.40;;;8.50;76.30;;;;;;4970854;28;82881;-73
2023/01/12 11:00:25;;;;;;;1.60;0.30;;;8.50;76.00;;;;;;4975877;28;82795;-75
2023/01/12 11:02:51;;;;;;;1.50;0.20;;;8.50;75.70;;;;;;4989561;28;85018;-74
2023/01/12 11:05:37;;;;;;;1.70;0.30;;;8.50;75.50;;;;;;4973793;28;83881;-76
2023/01/12 11:08:42;;;;;;;1.95;0.20;;;8.40;74.20;;;;;;4974132;28;83117;-76
2023/01/12 11:11:21;;;;;;;1.92;0.10;;;8.40;74.70;;;;;;4976621;28;82411;-78
2023/01/12 11:13:50;;;;;;;1.48;0.17;;;8.50;77.20;;;;;;4971285;28;83469;-75
2023/01/12 11:16:23;;;;;;;0.77;0.10;;;8.60;77.30;;;;;;4971316;28;82761;-77
2023/01/12 11:19:09;;;;;;;1.58;0.20;;;8.60;73.60;;;;;;4971656;28;83477;-75
2023/01/12 11:21:40;;;;;;;1.35;0.10;;;8.60;74.20;;;;;;4970159;28;82179;-76
2023/01/12 11:24:19;;;;;;;1.20;0.30;;;8.60;73.90;;;;;;4974817;28;82563;-74
2023/01/12 11:27:01;;;;;;;1.77;0.17;;;8.60;74.50;;;;;;4981974;28;82802;-74
2023/01/12 11:29:52;;;;;;;1.15;0.20;;;8.60;73.30;;;;;;4970313;28;83356;-73
2023/01/12 11:32:37;;;;;;;3.47;0.20;;;8.60;73.10;;;;;;4966229;28;84423;-74
2023/01/12 11:35:05;;;;;;;3.15;0.38;;;8.60;75.40;;;;;;4962389;28;84858;-73
2023/01/12 11:37:41;;;;;;;0.90;0.10;;;8.60;73.30;;;;;;4965341;28;85462;-70
2023/01/12 11:40:26;;;;;;;1.38;0.45;;;8.50;74.10;;;;;;4964903;28;82916;-72
2023/01/12 11:45:51;;;;;;;3.17;0.20;;;8.60;73.80;;;;;;4964384;28;83664;-72
2023/01/12 11:48:24;;;;;;;1.58;0.10;;;8.60;73.60;;;;;;4966328;28;82534;-74
2023/01/12 11:50:52;;;;;;;1.60;0.20;;;8.60;72.60;;;;;;4966700;28;83702;-73
2023/01/12 11:53:21;;;;;;;1.13;0.20;;;8.60;73.90;;;;;;4967192;28;83230;-73
2023/01/12 11:55:59;;;;;;;1.85;0.10;;;8.70;72.90;;;;;;4962540;28;83589;-74
2023/01/12 11:58:28;;;;;;;1.48;0.20;;;8.80;72.20;;;;;;4970301;28;83884;-72
2023/01/12 12:01:18;;;;;;;1.67;0.20;;;8.80;72.30;;;;;;4959117;28;82936;-73
2023/01/12 12:04:02;;;;;;;2.25;0.20;;;8.90;71.30;;;;;;4964080;28;82253;-72
2023/01/12 12:06:37;;;;;;;2.70;0.55;;;8.90;71.10;;;;;;4964120;28;85603;-72
2023/01/12 12:09:38;;;;;;;1.58;0.35;;;9.00;71.50;;;;;;4963575;28;83749;-72
2023/01/12 12:12:34;;;;;;;1.20;0.30;;;9.20;71.10;;;;;;4947232;28;84815;-72
2023/01/12 12:15:21;;;;;;;1.42;0.22;;;9.20;70.80;;;;;;4965954;28;81778;-72
2023/01/12 12:18:04;;;;;;;1.92;0.43;;;9.20;70.60;;;;;;4964828;28;85017;-72
2023/01/12 12:20:38;;;;;;;1.75;0.10;;;9.30;69.90;;;;;;4974263;28;83097;-72
2023/01/12 12:23:30;;;;;;;2.65;0.30;;;9.20;70.20;;;;;;4975002;28;85425;-72
2023/01/12 12:26:11;;;;;;;2.40;0.80;;;9.20;70.80;;;;;;4967217;28;82163;-72
2023/01/12 12:28:52;;;;;;;1.75;0.20;;;9.20;71.20;;;;;;4974073;28;85360;-72
2023/01/12 12:31:21;;;;;;;3.47;0.98;;;9.10;70.80;;;;;;4972791;28;82408;-72
2023/01/12 12:34:02;;;;;;;4.97;1.13;;;9.00;70.90;;;;;;4972052;28;84085;-72
2023/01/12 12:36:35;;;;;;;3.50;0.77;;;9.10;71.30;;;;;;4971380;28;83545;-72
2023/01/12 12:39:16;;;;;;;30.92;9.73;;;9.00;71.80;;;;;;4972175;28;82600;-72
2023/01/12 12:47:41;;;;;;;;;;;9.00;71.00;;;;;;4980348;28;82355;-72
2023/01/12 12:50:21;;;;;;;4.35;0.10;;;8.90;71.00;;;;;;4981005;28;83937;-72
2023/01/12 12:53:13;;;;;;;1.65;0.15;;;9.00;69.40;;;;;;4980384;28;83197;-72
2023/01/12 12:55:40;;;;;;;5.13;1.63;;;9.10;69.90;;;;;;4960386;28;84014;-72
2023/01/12 12:58:20;;;;;;;4.05;1.35;;;9.10;69.70;;;;;;4964857;28;82412;-72
2023/01/12 13:00:48;;;;;;;6.00;2.30;;;9.10;69.20;;;;;;4975854;28;82494;-72
2023/01/12 13:03:38;;;;;;;3.05;0.60;;;9.00;70.30;;;;;;4979850;28;83060;-72
2023/01/12 13:06:30;;;;;;;2.45;0.73;;;9.10;69.00;;;;;;4980217;28;82173;-72
2023/01/12 13:08:58;;;;;;;5.55;2.40;;;9.10;68.50;;;;;;4980476;28;81840;-72
2023/01/12 13:11:46;;;;;;;3.63;0.50;;;9.00;69.10;;;;;;4979626;28;83279;-72
2023/01/12 13:14:33;;;;;;;3.30;0.50;;;9.10;68.90;;;;;;4980194;28;83014;-72
2023/01/12 13:17:00;;;;;;;4.22;1.88;;;9.10;68.40;;;;;;4976573;28;83713;-72
2023/01/12 13:19:49;;;;;;;5.53;2.17;;;9.10;69.10;;;;;;4987099;28;82624;-72
2023/01/12 13:22:42;;;;;;;2.30;0.60;;;9.00;68.40;;;;;;4999522;28;83398;-72
2023/01/12 13:25:22;;;;;;;1.88;0.50;;;9.00;68.80;;;;;;4987138;28;82894;-72
2023/01/12 13:28:00;;;;;;;2.03;0.35;;;9.00;68.40;;;;;;4980054;28;82423;-72
2023/01/12 13:30:25;;;;;;;1.35;0.20;;;9.00;68.10;;;;;;4980237;28;82293;-72
2023/01/12 13:32:54;;;;;;;1.92;0.35;;;9.10;68.60;;;;;;4975724;28;82591;-72
2023/01/12 13:35:34;;;;;;;2.90;0.30;;;9.10;68.20;;;;;;4979868;28;81995;-72
2023/01/12 13:38:43;;;;;;;6.53;1.55;;;9.10;68.00;;;;;;4979413;28;83228;-73
2023/01/12 13:43:13;;;;;;;5.28;1.52;;;9.10;68.40;;;;;;4980229;28;81976;-72
2023/01/12 13:44:04;;;;;;;4.47;0.82;;;9.20;67.90;;;;;;4977595;28;83592;-72
2023/01/12 13:46:45;;;;;;;3.17;0.35;;;9.20;68.10;;;;;;4979601;28;84432;-72
2023/01/12 13:49:32;;;;;;;5.40;1.17;;;9.30;68.20;;;;;;4977069;28;82332;-72
2023/01/12 13:52:04;;;;;;;4.82;0.40;;;9.30;68.20;;;;;;4977576;28;82197;-72
2023/01/12 13:54:30;;;;;;;6.70;2.50;;;9.30;68.00;;;;;;4983060;28;82648;-72
2023/01/12 13:57:02;;;;;;;6.00;2.00;;;9.20;68.40;;;;;;4982990;28;82449;-72
2023/01/12 13:59:29;;;;;;;9.48;4.47;;;9.20;67.80;;;;;;4982456;28;82079;-72
2023/01/12 14:01:56;;;;;;;3.17;0.40;;;9.30;67.90;;;;;;4982779;28;81645;-72
2023/01/12 14:04:40;;;;;;;2.63;0.60;;;9.30;67.60;;;;;;4982994;28;82974;-72
2023/01/12 14:07:42;;;;;;;2.90;0.73;;;9.20;67.80;;;;;;4977740;28;82286;-72